Stevens Creek, Virginia
Current Conditions -  °F | °C
As of 7:15 AM on Sunday 23 Nov 2014 (Local Time) from KHLX Reporting Station
Clear Clear  
Wind Chill: 40°   Ceiling: Unl
Heat Index: 44°   Visibility: 10mi
Dew Point: 38°   Wind: 7mph
Humidity: 77%   Direction: 190°S
Pressure: 30.19"   Gusts: NA
Location:  36.7333°N, 81.0291°W
Report Text: KHLX 231215Z AUTO 19006KT 10SM CLR 07/03 A3019 RMK AO2 T00680031
Loading
Personal Weather Stations






























Interactive Weather Map New forecast layout! Learn more

10-Day Weather Forecast

Advertisements
Track Severe Weather on mobile